FFT9443 KTPA-KMCO
Flight info
| Callsign | FFT9443 |
|---|---|
| Flight time | 0h 28m |
| Altitude | 13000 |
| Route | LAL MINEE MINEE6 |
| Aircraft | A20N/M-SDE2E3FGHIRWXY/LB1 |
Departure
| Time | 2026-04-26 17:32 |
|---|---|
| Airport | Tampa International Airport (KTPA) |
Arrival
| Time | 2026-04-26 18:01 |
|---|---|
| Airport | Orlando International Airport (KMCO) |
| Time | Latitude | Longitude | Altitude | Speed | Heading |
|---|---|---|---|---|---|
| 2026-04-26 16:42 | 27.97607 | -82.53174 | 32 ft | 0 kts | 268° |
| 2026-04-26 17:17 | 27.97607 | -82.53173 | 33 ft | 1 kts | 268° |
| 2026-04-26 17:17 | 27.97607 | -82.53154 | 33 ft | 3 kts | 270° |
| 2026-04-26 17:18 | 27.97607 | -82.53132 | 32 ft | 3 kts | 274° |
| 2026-04-26 17:18 | 27.97605 | -82.53109 | 32 ft | 3 kts | 281° |
| 2026-04-26 17:18 | 27.97600 | -82.53087 | 31 ft | 3 kts | 296° |
| 2026-04-26 17:18 | 27.97590 | -82.53070 | 30 ft | 3 kts | 339° |
| 2026-04-26 17:19 | 27.97583 | -82.53067 | 31 ft | 0 kts | 1° |
| 2026-04-26 17:28 | 27.97591 | -82.53067 | 32 ft | 7 kts | 1° |
| 2026-04-26 17:28 | 27.97687 | -82.53064 | 33 ft | 18 kts | 1° |
| 2026-04-26 17:28 | 27.97826 | -82.53055 | 33 ft | 22 kts | 14° |
| 2026-04-26 17:29 | 27.97972 | -82.52979 | 33 ft | 24 kts | 16° |
| 2026-04-26 17:29 | 27.98083 | -82.52966 | 34 ft | 25 kts | 2° |
| 2026-04-26 17:29 | 27.98330 | -82.52956 | 31 ft | 28 kts | 1° |
| 2026-04-26 17:29 | 27.98508 | -82.52956 | 33 ft | 23 kts | 359° |
| 2026-04-26 17:30 | 27.98644 | -82.52949 | 32 ft | 17 kts | 352° |
| 2026-04-26 17:30 | 27.98703 | -82.52930 | 32 ft | 0 kts | 49° |
| 2026-04-26 17:31 | 27.98705 | -82.52926 | 32 ft | 2 kts | 50° |
| 2026-04-26 17:31 | 27.98709 | -82.52906 | 32 ft | 4 kts | 91° |
| 2026-04-26 17:31 | 27.98700 | -82.52867 | 32 ft | 5 kts | 127° |
| 2026-04-26 17:31 | 27.98653 | -82.52833 | 34 ft | 18 kts | 167° |
| 2026-04-26 17:32 | 27.98306 | -82.52851 | 32 ft | 84 kts | 183° |
| 2026-04-26 17:32 | 27.97527 | -82.52871 | 29 ft | 137 kts | 182° |
| 2026-04-26 17:32 | 27.96433 | -82.52901 | 107 ft | 169 kts | 176° |
| 2026-04-26 17:32 | 27.95325 | -82.52970 | 735 ft | 163 kts | 188° |
| 2026-04-26 17:33 | 27.94178 | -82.52872 | 1314 ft | 166 kts | 158° |
| 2026-04-26 17:33 | 27.93142 | -82.52255 | 1844 ft | 174 kts | 154° |
| 2026-04-26 17:33 | 27.92026 | -82.51589 | 2204 ft | 189 kts | 154° |
| 2026-04-26 17:34 | 27.89432 | -82.50030 | 2793 ft | 235 kts | 154° |
| 2026-04-26 17:34 | 27.87924 | -82.49129 | 3210 ft | 263 kts | 154° |
| 2026-04-26 17:34 | 27.86265 | -82.48158 | 4081 ft | 271 kts | 154° |
| 2026-04-26 17:34 | 27.84549 | -82.47164 | 5033 ft | 279 kts | 154° |
| 2026-04-26 17:35 | 27.82825 | -82.46143 | 6071 ft | 280 kts | 153° |
| 2026-04-26 17:35 | 27.81164 | -82.44928 | 6922 ft | 290 kts | 138° |
| 2026-04-26 17:35 | 27.79969 | -82.43090 | 7941 ft | 293 kts | 113° |
| 2026-04-26 17:35 | 27.79517 | -82.40842 | 8919 ft | 295 kts | 88° |
| 2026-04-26 17:36 | 27.79859 | -82.38553 | 9864 ft | 298 kts | 66° |
| 2026-04-26 17:36 | 27.80891 | -82.36551 | 10732 ft | 299 kts | 47° |
| 2026-04-26 17:36 | 27.82348 | -82.34829 | 11219 ft | 317 kts | 42° |
| 2026-04-26 17:36 | 27.83870 | -82.32900 | 11576 ft | 342 kts | 50° |
| 2026-04-26 17:37 | 27.85251 | -82.30611 | 12151 ft | 357 kts | 56° |
| 2026-04-26 17:37 | 27.86491 | -82.28156 | 12732 ft | 363 kts | 59° |
| 2026-04-26 17:37 | 27.87668 | -82.25625 | 12933 ft | 365 kts | 60° |
| 2026-04-26 17:38 | 27.89971 | -82.20498 | 12978 ft | 365 kts | 60° |
| 2026-04-26 17:38 | 27.91118 | -82.17950 | 12984 ft | 365 kts | 60° |
| 2026-04-26 17:38 | 27.92276 | -82.15388 | 12988 ft | 365 kts | 60° |
| 2026-04-26 17:38 | 27.93435 | -82.12833 | 12987 ft | 364 kts | 60° |
| 2026-04-26 17:39 | 27.94592 | -82.10286 | 12989 ft | 364 kts | 60° |
| 2026-04-26 17:39 | 27.95750 | -82.07734 | 12988 ft | 364 kts | 60° |
| 2026-04-26 17:39 | 27.96912 | -82.05189 | 12987 ft | 364 kts | 59° |
| 2026-04-26 17:39 | 27.98076 | -82.02641 | 12989 ft | 364 kts | 60° |
| 2026-04-26 17:40 | 27.99229 | -82.00097 | 12987 ft | 364 kts | 59° |
| 2026-04-26 17:40 | 28.00025 | -81.98427 | 12988 ft | 363 kts | 58° |
| 2026-04-26 17:40 | 28.01673 | -81.95099 | 12993 ft | 364 kts | 58° |
| 2026-04-26 17:40 | 28.02914 | -81.92610 | 12989 ft | 364 kts | 58° |
| 2026-04-26 17:41 | 28.04159 | -81.90104 | 12985 ft | 364 kts | 58° |
| 2026-04-26 17:41 | 28.05395 | -81.87602 | 12989 ft | 364 kts | 58° |
| 2026-04-26 17:41 | 28.06628 | -81.85100 | 12981 ft | 363 kts | 57° |
| 2026-04-26 17:41 | 28.07865 | -81.82611 | 12739 ft | 361 kts | 58° |
| 2026-04-26 17:42 | 28.09076 | -81.80129 | 12333 ft | 359 kts | 59° |
| 2026-04-26 17:42 | 28.10275 | -81.77656 | 11848 ft | 356 kts | 59° |
| 2026-04-26 17:42 | 28.11451 | -81.75239 | 11349 ft | 354 kts | 59° |
| 2026-04-26 17:42 | 28.12655 | -81.72774 | 10851 ft | 351 kts | 59° |
| 2026-04-26 17:43 | 28.13816 | -81.70401 | 10372 ft | 348 kts | 59° |
| 2026-04-26 17:43 | 28.14980 | -81.68044 | 10204 ft | 335 kts | 59° |
| 2026-04-26 17:43 | 28.16082 | -81.65775 | 10058 ft | 321 kts | 59° |
| 2026-04-26 17:43 | 28.17112 | -81.63593 | 9966 ft | 304 kts | 60° |
| 2026-04-26 17:44 | 28.18093 | -81.61523 | 9637 ft | 296 kts | 60° |
| 2026-04-26 17:44 | 28.19080 | -81.59476 | 9188 ft | 296 kts | 59° |
| 2026-04-26 17:44 | 28.20075 | -81.57435 | 8805 ft | 295 kts | 59° |
| 2026-04-26 17:44 | 28.21059 | -81.55411 | 8473 ft | 291 kts | 59° |
| 2026-04-26 17:45 | 28.22035 | -81.53387 | 8095 ft | 291 kts | 60° |
| 2026-04-26 17:45 | 28.23011 | -81.51376 | 8012 ft | 294 kts | 59° |
| 2026-04-26 17:45 | 28.24012 | -81.49341 | 7988 ft | 295 kts | 58° |
| 2026-04-26 17:45 | 28.25007 | -81.47305 | 7998 ft | 296 kts | 59° |
| 2026-04-26 17:46 | 28.26116 | -81.45396 | 8028 ft | 291 kts | 43° |
| 2026-04-26 17:46 | 28.27784 | -81.44099 | 8051 ft | 288 kts | 19° |
| 2026-04-26 17:46 | 28.29686 | -81.43378 | 8010 ft | 288 kts | 14° |
| 2026-04-26 17:46 | 28.31579 | -81.42704 | 7989 ft | 286 kts | 15° |
| 2026-04-26 17:47 | 28.33473 | -81.42016 | 7980 ft | 288 kts | 15° |
| 2026-04-26 17:47 | 28.34730 | -81.41537 | 7977 ft | 288 kts | 16° |
| 2026-04-26 17:47 | 28.37260 | -81.40521 | 7994 ft | 287 kts | 17° |
| 2026-04-26 17:47 | 28.39138 | -81.39747 | 7978 ft | 288 kts | 18° |
| 2026-04-26 17:48 | 28.41017 | -81.38948 | 7996 ft | 288 kts | 17° |
| 2026-04-26 17:48 | 28.42897 | -81.38142 | 7992 ft | 288 kts | 18° |
| 2026-04-26 17:48 | 28.44754 | -81.37356 | 7974 ft | 288 kts | 17° |
| 2026-04-26 17:48 | 28.46656 | -81.36592 | 7969 ft | 289 kts | 17° |
| 2026-04-26 17:49 | 28.48554 | -81.35833 | 7968 ft | 287 kts | 17° |
| 2026-04-26 17:49 | 28.50414 | -81.35086 | 7968 ft | 288 kts | 17° |
| 2026-04-26 17:49 | 28.52287 | -81.34292 | 7919 ft | 285 kts | 25° |
| 2026-04-26 17:49 | 28.53826 | -81.32929 | 7822 ft | 275 kts | 43° |
| 2026-04-26 17:50 | 28.55089 | -81.31395 | 7613 ft | 257 kts | 44° |
| 2026-04-26 17:50 | 28.56287 | -81.29955 | 7293 ft | 247 kts | 44° |
| 2026-04-26 17:50 | 28.57462 | -81.28561 | 6840 ft | 243 kts | 43° |
| 2026-04-26 17:50 | 28.58636 | -81.27154 | 6443 ft | 241 kts | 45° |
| 2026-04-26 17:51 | 28.59774 | -81.25791 | 6101 ft | 239 kts | 43° |
| 2026-04-26 17:51 | 28.60933 | -81.24459 | 5739 ft | 238 kts | 43° |
| 2026-04-26 17:51 | 28.62101 | -81.23107 | 5510 ft | 238 kts | 43° |
| 2026-04-26 17:51 | 28.63263 | -81.21780 | 5290 ft | 236 kts | 43° |
| 2026-04-26 17:52 | 28.64430 | -81.20453 | 5080 ft | 234 kts | 43° |
| 2026-04-26 17:52 | 28.65582 | -81.19136 | 4842 ft | 236 kts | 43° |
| 2026-04-26 17:52 | 28.66760 | -81.17840 | 4572 ft | 236 kts | 33° |
| 2026-04-26 17:52 | 28.68256 | -81.17190 | 4294 ft | 228 kts | 359° |
| 2026-04-26 17:53 | 28.69758 | -81.17545 | 4021 ft | 218 kts | 326° |
| 2026-04-26 17:53 | 28.70776 | -81.18743 | 3755 ft | 212 kts | 292° |
| 2026-04-26 17:53 | 28.71010 | -81.20382 | 3497 ft | 213 kts | 265° |
| 2026-04-26 17:54 | 28.70669 | -81.23742 | 3000 ft | 212 kts | 263° |
| 2026-04-26 17:54 | 28.70492 | -81.25374 | 2959 ft | 203 kts | 263° |
| 2026-04-26 17:54 | 28.70310 | -81.26990 | 2963 ft | 212 kts | 262° |
| 2026-04-26 17:54 | 28.69876 | -81.28586 | 2953 ft | 213 kts | 234° |
| 2026-04-26 17:55 | 28.68673 | -81.29493 | 2957 ft | 217 kts | 192° |
| 2026-04-26 17:55 | 28.67141 | -81.29327 | 2966 ft | 224 kts | 166° |
| 2026-04-26 17:55 | 28.65694 | -81.28836 | 2980 ft | 213 kts | 167° |
| 2026-04-26 17:55 | 28.64259 | -81.28510 | 2973 ft | 211 kts | 176° |
| 2026-04-26 17:56 | 28.62841 | -81.28426 | 2958 ft | 192 kts | 183° |
| 2026-04-26 17:56 | 28.60294 | -81.28416 | 2957 ft | 163 kts | 183° |
| 2026-04-26 17:57 | 28.58125 | -81.28398 | 2696 ft | 152 kts | 184° |
| 2026-04-26 17:57 | 28.57066 | -81.28388 | 2513 ft | 151 kts | 183° |
| 2026-04-26 17:57 | 28.56013 | -81.28375 | 2324 ft | 151 kts | 185° |
| 2026-04-26 17:57 | 28.54976 | -81.28366 | 2122 ft | 146 kts | 184° |
| 2026-04-26 17:58 | 28.51881 | -81.28338 | 1574 ft | 150 kts | 182° |
| 2026-04-26 17:59 | 28.49835 | -81.28342 | 1158 ft | 145 kts | 184° |
| 2026-04-26 17:59 | 28.48805 | -81.28333 | 989 ft | 148 kts | 183° |
| 2026-04-26 17:59 | 28.47804 | -81.28306 | 785 ft | 142 kts | 180° |
| 2026-04-26 17:59 | 28.46779 | -81.28268 | 581 ft | 147 kts | 182° |
| 2026-04-26 18:00 | 28.45786 | -81.28267 | 409 ft | 144 kts | 183° |
| 2026-04-26 18:00 | 28.44814 | -81.28262 | 229 ft | 135 kts | 183° |
| 2026-04-26 18:00 | 28.43888 | -81.28260 | 108 ft | 129 kts | 181° |
| 2026-04-26 18:00 | 28.43183 | -81.28254 | 99 ft | 72 kts | 180° |
| 2026-04-26 18:01 | 28.42871 | -81.28246 | 103 ft | 26 kts | 176° |
| 2026-04-26 18:01 | 28.42683 | -81.28245 | 104 ft | 28 kts | 181° |
| 2026-04-26 18:01 | 28.42538 | -81.28327 | 107 ft | 11 kts | 262° |
| 2026-04-26 18:01 | 28.42538 | -81.28331 | 107 ft | 0 kts | 263° |
| 2026-04-26 18:02 | 28.42537 | -81.28336 | 107 ft | 4 kts | 261° |
| 2026-04-26 18:02 | 28.42507 | -81.28408 | 106 ft | 14 kts | 246° |
| 2026-04-26 18:03 | 28.42466 | -81.28542 | 105 ft | 20 kts | 253° |
| 2026-04-26 18:03 | 28.42415 | -81.28708 | 100 ft | 24 kts | 245° |
| 2026-04-26 18:03 | 28.42362 | -81.28859 | 107 ft | 18 kts | 250° |
| 2026-04-26 18:03 | 28.42318 | -81.28999 | 107 ft | 20 kts | 251° |
| 2026-04-26 18:04 | 28.42284 | -81.29157 | 106 ft | 21 kts | 260° |
| 2026-04-26 18:04 | 28.42281 | -81.29336 | 104 ft | 24 kts | 272° |
| 2026-04-26 18:04 | 28.42283 | -81.29452 | 101 ft | 5 kts | 271° |
| 2026-04-26 18:05 | 28.42283 | -81.29463 | 101 ft | 0 kts | 270° |
| 2026-04-26 18:05 | 28.42283 | -81.29493 | 100 ft | 13 kts | 270° |
| 2026-04-26 18:05 | 28.42284 | -81.29654 | 99 ft | 24 kts | 269° |
| 2026-04-26 18:05 | 28.42282 | -81.29851 | 103 ft | 25 kts | 269° |
| 2026-04-26 18:06 | 28.42279 | -81.30051 | 103 ft | 26 kts | 269° |
| 2026-04-26 18:06 | 28.42280 | -81.30265 | 101 ft | 28 kts | 270° |
| 2026-04-26 18:06 | 28.42271 | -81.30487 | 103 ft | 27 kts | 265° |
| 2026-04-26 18:06 | 28.42254 | -81.30706 | 104 ft | 28 kts | 265° |
| 2026-04-26 18:07 | 28.42238 | -81.30934 | 102 ft | 30 kts | 266° |
| 2026-04-26 18:07 | 28.42240 | -81.31104 | 93 ft | 15 kts | 250° |
| 2026-04-26 18:07 | 28.42261 | -81.31217 | 95 ft | 15 kts | 284° |
| 2026-04-26 18:07 | 28.42268 | -81.31257 | 95 ft | 15 kts | 272° |
| 2026-04-26 18:08 | 28.42270 | -81.31468 | 98 ft | 17 kts | 269° |
| 2026-04-26 18:08 | 28.42269 | -81.31550 | 99 ft | 10 kts | 267° |
| 2026-04-26 18:08 | 28.42268 | -81.31581 | 100 ft | 0 kts | 267° |
| 2026-04-26 18:08 | 28.42268 | -81.31583 | 100 ft | 1 kts | 267° |
| 2026-04-26 18:09 | 28.42267 | -81.31605 | 100 ft | 0 kts | 267° |
| 2026-04-26 18:09 | 28.42265 | -81.31655 | 101 ft | 9 kts | 268° |
| 2026-04-26 18:09 | 28.42264 | -81.31745 | 104 ft | 14 kts | 270° |
| 2026-04-26 18:10 | 28.42326 | -81.31813 | 105 ft | 17 kts | 8° |
| 2026-04-26 18:10 | 28.42466 | -81.31816 | 105 ft | 21 kts | 342° |
| 2026-04-26 18:10 | 28.42620 | -81.31837 | 106 ft | 24 kts | 358° |
| 2026-04-26 18:10 | 28.42794 | -81.31835 | 104 ft | 25 kts | 12° |
| 2026-04-26 18:11 | 28.42981 | -81.31844 | 102 ft | 28 kts | 0° |
| 2026-04-26 18:11 | 28.43152 | -81.31842 | 102 ft | 20 kts | 4° |
| 2026-04-26 18:11 | 28.43252 | -81.31785 | 101 ft | 12 kts | 56° |
| 2026-04-26 18:11 | 28.43285 | -81.31691 | 102 ft | 13 kts | 77° |
| 2026-04-26 18:12 | 28.43267 | -81.31585 | 101 ft | 10 kts | 109° |
| 2026-04-26 18:12 | 28.43282 | -81.31511 | 102 ft | 8 kts | 70° |
| 2026-04-26 18:12 | 28.43315 | -81.31462 | 101 ft | 5 kts | 33° |
| 2026-04-26 18:12 | 28.43346 | -81.31467 | 102 ft | 4 kts | 331° |
| 2026-04-26 18:13 | 28.43358 | -81.31476 | 102 ft | 3 kts | 325° |
| 2026-04-26 18:13 | 28.43366 | -81.31483 | 102 ft | 2 kts | 325° |
| 2026-04-26 18:13 | 28.43372 | -81.31487 | 102 ft | 0 kts | 325° |